Time;durP1;ratioP1;P1;durP2;ratioP2;P2;SDS_P1;SDS_P2;PMS_P1;PMS_P2;Temp;Humidity;BMP_temperature;BMP_pressure;BME280_temperature;BME280_humidity;BME280_pressure;Samples;Min_cycle;Max_cycle;Signal;HPM_P1;HPM_P2
2022/06/23 00:04:26;;;;;;;17.60;15.68;;;;;;;;;;10217280;28;20147;-81
2022/06/23 00:09:26;;;;;;;17.05;14.63;;;;;;;;;;10223376;28;20051;-82
2022/06/23 00:14:27;;;;;;;17.70;14.37;;;;;;;;;;10230067;28;20043;-80
2022/06/23 00:19:27;;;;;;;15.35;13.80;;;;;;;;;;10226989;28;20291;-78
2022/06/23 00:24:28;;;;;;;17.53;14.20;;;;;;;;;;10211633;28;20056;-78
2022/06/23 00:29:29;;;;;;;17.05;14.75;;;;;;;;;;10216557;28;20051;-78
2022/06/23 00:34:30;;;;;;;16.50;13.15;;;;;;;;;;10250733;28;20039;-78
2022/06/23 00:39:35;;;;;;;17.57;14.53;;;;;;;;;;10261144;28;20206;-79
2022/06/23 00:44:58;;;;;;;18.48;15.57;;;;;;;;;;10257477;28;20035;-79
2022/06/23 00:50:11;;;;;;;16.83;14.48;;;;;;;;;;10205216;28;20062;-79
2022/06/23 00:55:14;;;;;;;18.33;14.95;;;;;;;;;;10222565;28;20679;-80
2022/06/23 01:00:18;;;;;;;18.70;14.45;;;;;;;;;;10224276;28;20047;-78
2022/06/23 01:05:46;;;;;;;16.02;14.38;;;;;;;;;;10226254;28;20431;-83
2022/06/23 01:10:52;;;;;;;21.20;16.05;;;;;;;;;;10228728;28;20051;-79
2022/06/23 01:15:56;;;;;;;18.83;16.30;;;;;;;;;;10230186;28;20131;-78
2022/06/23 01:21:02;;;;;;;16.98;14.18;;;;;;;;;;10230791;28;20094;-78
2022/06/23 01:26:20;;;;;;;18.55;15.77;;;;;;;;;;10220172;28;20070;-79
2022/06/23 01:31:34;;;;;;;17.33;15.23;;;;;;;;;;10230455;28;20083;-78
2022/06/23 01:36:37;;;;;;;17.05;14.60;;;;;;;;;;10217086;28;20066;-79
2022/06/23 01:41:43;;;;;;;18.42;15.05;;;;;;;;;;10226313;28;20445;-80
2022/06/23 01:46:46;;;;;;;18.23;15.85;;;;;;;;;;10212179;28;20043;-79
2022/06/23 01:51:49;;;;;;;22.67;18.48;;;;;;;;;;10227121;28;20095;-81
2022/06/23 01:56:52;;;;;;;19.98;17.17;;;;;;;;;;10221337;28;20055;-80
2022/06/23 02:01:58;;;;;;;22.98;17.27;;;;;;;;;;10219439;28;20052;-81
2022/06/23 02:07:04;;;;;;;21.15;17.52;;;;;;;;;;10222276;28;20102;-82
2022/06/23 02:12:12;;;;;;;23.10;17.17;;;;;;;;;;10217492;28;20055;-78
2022/06/23 02:17:32;;;;;;;18.77;16.48;;;;;;;;;;10225243;28;20057;-78
2022/06/23 02:22:36;;;;;;;22.83;16.85;;;;;;;;;;10230824;28;20077;-79
2022/06/23 02:27:55;;;;;;;26.13;18.63;;;;;;;;;;10233997;28;20123;-79
2022/06/23 02:32:56;;;;;;;22.48;17.40;;;;;;;;;;10225903;28;20073;-80
2022/06/23 02:38:02;;;;;;;16.90;15.13;;;;;;;;;;10234081;28;20042;-78
2022/06/23 02:43:26;;;;;;;17.50;15.63;;;;;;;;;;10250171;28;20110;-80
2022/06/23 02:48:26;;;;;;;19.98;16.15;;;;;;;;;;10266783;28;20031;-78
2022/06/23 02:53:33;;;;;;;20.05;17.85;;;;;;;;;;10254222;28;20043;-79
2022/06/23 02:58:45;;;;;;;17.88;15.98;;;;;;;;;;10242155;28;20062;-79
2022/06/23 03:03:56;;;;;;;18.15;15.73;;;;;;;;;;10230262;28;20415;-78
2022/06/23 03:09:06;;;;;;;17.73;14.45;;;;;;;;;;10233903;28;20107;-79
2022/06/23 03:14:07;;;;;;;19.95;17.00;;;;;;;;;;10210601;28;20056;-79
2022/06/23 03:19:16;;;;;;;20.27;16.88;;;;;;;;;;10225369;28;20438;-79
2022/06/23 03:24:20;;;;;;;18.65;15.98;;;;;;;;;;10215421;29;20059;-79
2022/06/23 03:29:40;;;;;;;22.80;18.45;;;;;;;;;;10219097;28;20103;-79
2022/06/23 03:34:43;;;;;;;27.02;19.60;;;;;;;;;;10218199;28;20053;-78
2022/06/23 03:45:13;;;;;;;20.02;17.33;;;;;;;;;;10237004;28;20159;-80
2022/06/23 03:50:20;;;;;;;19.13;16.45;;;;;;;;;;10229781;28;20098;-78
2022/06/23 03:55:23;;;;;;;18.45;16.15;;;;;;;;;;10229309;28;20114;-79
2022/06/23 04:00:53;;;;;;;21.83;19.20;;;;;;;;;;10232725;28;20067;-80
2022/06/23 04:05:56;;;;;;;24.48;19.25;;;;;;;;;;10218487;28;20055;-79
2022/06/23 04:10:58;;;;;;;22.13;19.35;;;;;;;;;;10211080;28;20063;-79
2022/06/23 04:16:08;;;;;;;19.85;17.23;;;;;;;;;;10223418;28;20059;-79
2022/06/23 04:21:11;;;;;;;21.33;17.75;;;;;;;;;;10223282;28;20364;-77
2022/06/23 04:26:14;;;;;;;21.70;19.27;;;;;;;;;;10224499;28;20043;-80
2022/06/23 04:31:20;;;;;;;25.15;19.88;;;;;;;;;;10226392;28;20102;-74
2022/06/23 04:36:22;;;;;;;24.63;21.10;;;;;;;;;;10226458;28;20063;-77
2022/06/23 04:41:40;;;;;;;20.05;17.80;;;;;;;;;;10223657;28;20118;-73
2022/06/23 04:46:46;;;;;;;26.70;23.23;;;;;;;;;;10241606;28;20051;-82
2022/06/23 04:51:50;;;;;;;29.55;24.58;;;;;;;;;;10241017;28;20066;-74
2022/06/23 04:56:52;;;;;;;26.70;22.17;;;;;;;;;;10235611;28;20088;-73
2022/06/23 05:01:54;;;;;;;20.38;17.45;;;;;;;;;;10218098;28;20066;-72
2022/06/23 05:06:56;;;;;;;26.40;22.13;;;;;;;;;;10229162;28;20055;-72
2022/06/23 05:12:00;;;;;;;24.00;19.85;;;;;;;;;;10231929;28;20066;-72
2022/06/23 05:17:05;;;;;;;28.40;22.58;;;;;;;;;;10219095;28;20106;-75
2022/06/23 05:22:11;;;;;;;28.65;24.15;;;;;;;;;;10223872;28;20071;-74
2022/06/23 05:27:27;;;;;;;30.00;25.27;;;;;;;;;;10212812;29;20043;-72
2022/06/23 05:32:31;;;;;;;21.92;19.63;;;;;;;;;;10220614;28;20894;-71
2022/06/23 05:37:53;;;;;;;25.83;22.33;;;;;;;;;;10215486;28;20043;-74
2022/06/23 05:42:55;;;;;;;22.17;19.70;;;;;;;;;;10216408;28;20058;-73
2022/06/23 05:47:57;;;;;;;27.75;24.40;;;;;;;;;;10221990;28;20101;-74
2022/06/23 05:53:00;;;;;;;29.20;24.83;;;;;;;;;;10215588;28;20055;-72
2022/06/23 05:58:00;;;;;;;28.55;23.30;;;;;;;;;;10229400;28;20047;-73
2022/06/23 06:03:16;;;;;;;26.37;22.90;;;;;;;;;;10210575;28;20065;-72
2022/06/23 06:08:20;;;;;;;24.50;21.85;;;;;;;;;;10222087;28;20074;-73
2022/06/23 06:13:24;;;;;;;24.58;20.98;;;;;;;;;;10214885;28;20419;-74
2022/06/23 06:18:33;;;;;;;28.45;23.38;;;;;;;;;;10212296;28;20051;-74
2022/06/23 06:23:33;;;;;;;25.20;20.00;;;;;;;;;;10223787;28;20063;-74
2022/06/23 06:28:34;;;;;;;26.23;20.30;;;;;;;;;;10238040;28;20039;-73
2022/06/23 06:33:37;;;;;;;24.60;19.40;;;;;;;;;;10235275;28;20332;-73
2022/06/23 06:38:38;;;;;;;21.98;18.25;;;;;;;;;;10216679;29;20047;-73
2022/06/23 06:43:38;;;;;;;23.88;18.70;;;;;;;;;;10228689;28;20484;-73
2022/06/23 06:48:40;;;;;;;19.30;16.20;;;;;;;;;;10236796;28;20043;-74
2022/06/23 06:53:43;;;;;;;11.80;7.70;;;;;;;;;;10238918;28;20058;-72
2022/06/23 06:58:52;;;;;;;12.13;8.30;;;;;;;;;;10234477;28;20058;-73
2022/06/23 07:03:54;;;;;;;10.77;7.40;;;;;;;;;;10224088;28;20170;-72
2022/06/23 07:08:57;;;;;;;11.30;6.60;;;;;;;;;;10236702;28;20043;-74
2022/06/23 07:14:17;;;;;;;7.57;5.28;;;;;;;;;;10232618;28;20431;-73
2022/06/23 07:19:36;;;;;;;10.52;6.07;;;;;;;;;;10222116;28;20127;-73
2022/06/23 07:24:36;;;;;;;8.00;4.43;;;;;;;;;;10222173;28;20063;-73
2022/06/23 07:29:55;;;;;;;6.87;4.73;;;;;;;;;;10226497;28;20058;-74
2022/06/23 07:35:18;;;;;;;10.63;6.15;;;;;;;;;;10221609;28;20101;-75
2022/06/23 07:40:20;;;;;;;5.65;3.72;;;;;;;;;;10225034;28;20123;-74
2022/06/23 07:45:24;;;;;;;5.68;3.50;;;;;;;;;;10227283;28;20055;-74
2022/06/23 07:50:25;;;;;;;5.45;4.15;;;;;;;;;;10232636;28;20853;-72
2022/06/23 07:55:33;;;;;;;7.70;3.78;;;;;;;;;;10225510;28;20054;-73
2022/06/23 08:00:38;;;;;;;7.20;3.40;;;;;;;;;;10237338;28;20822;-73
2022/06/23 08:05:41;;;;;;;6.28;4.45;;;;;;;;;;10230032;28;20075;-74
2022/06/23 08:10:41;;;;;;;6.88;4.18;;;;;;;;;;10231994;29;20070;-73
2022/06/23 08:21:24;;;;;;;5.60;4.07;;;;;;;;;;10220718;28;20059;-73
2022/06/23 08:26:26;;;;;;;;;;;;;;;;;;10219853;28;20542;-72
2022/06/23 08:31:27;;;;;;;6.15;3.42;;;;;;;;;;10234863;28;19914;-72
2022/06/23 08:36:46;;;;;;;8.40;4.15;;;;;;;;;;10231359;28;20051;-72
2022/06/23 08:41:59;;;;;;;4.35;3.35;;;;;;;;;;10236379;28;20054;-74
2022/06/23 08:47:18;;;;;;;8.57;3.83;;;;;;;;;;10217466;28;20044;-73
2022/06/23 08:52:22;;;;;;;6.20;4.35;;;;;;;;;;10232245;28;20058;-74
2022/06/23 08:57:31;;;;;;;5.68;3.83;;;;;;;;;;10240991;28;20058;-72
2022/06/23 09:02:50;;;;;;;7.35;4.05;;;;;;;;;;10219136;28;20059;-73
2022/06/23 09:07:56;;;;;;;6.65;3.42;;;;;;;;;;10242725;28;20332;-75
2022/06/23 09:13:09;;;;;;;9.82;6.32;;;;;;;;;;10217078;28;20047;-74
2022/06/23 09:18:28;;;;;;;6.38;3.70;;;;;;;;;;10240428;28;20490;-74
2022/06/23 09:23:28;;;;;;;7.57;4.32;;;;;;;;;;10228955;28;20048;-74
2022/06/23 09:28:47;;;;;;;4.57;4.10;;;;;;;;;;10221685;28;20059;-75
2022/06/23 09:34:11;;;;;;;6.90;4.78;;;;;;;;;;10221287;28;20075;-75
2022/06/23 09:39:40;;;;;;;5.90;4.65;;;;;;;;;;10215786;28;20093;-77
2022/06/23 09:44:59;;;;;;;5.00;3.45;;;;;;;;;;10162293;28;20062;-75
2022/06/23 09:50:18;;;;;;;4.60;3.53;;;;;;;;;;10217330;28;20056;-74
2022/06/23 09:55:18;;;;;;;5.40;3.15;;;;;;;;;;10225309;28;20083;-75
2022/06/23 10:00:21;;;;;;;5.43;3.13;;;;;;;;;;10236145;28;20131;-75
2022/06/23 10:05:24;;;;;;;4.18;2.72;;;;;;;;;;10218551;29;20071;-76
2022/06/23 10:10:33;;;;;;;4.05;2.80;;;;;;;;;;10220687;28;20086;-75
2022/06/23 10:15:36;;;;;;;5.05;4.25;;;;;;;;;;10218743;28;20359;-75
2022/06/23 10:20:41;;;;;;;4.82;2.75;;;;;;;;;;10222127;28;20071;-74
2022/06/23 10:25:59;;;;;;;6.15;2.85;;;;;;;;;;10219856;28;20095;-74
2022/06/23 10:31:06;;;;;;;7.40;3.30;;;;;;;;;;10212120;28;20143;-74
2022/06/23 10:36:16;;;;;;;4.35;2.63;;;;;;;;;;10221069;28;20181;-75
2022/06/23 10:41:31;;;;;;;5.53;3.13;;;;;;;;;;10229432;28;20407;-77
2022/06/23 10:46:31;;;;;;;3.42;2.30;;;;;;;;;;10220147;28;20241;-75
2022/06/23 10:51:51;;;;;;;5.70;2.50;;;;;;;;;;10232418;28;20086;-75
2022/06/23 10:56:57;;;;;;;2.47;2.28;;;;;;;;;;10212763;28;20519;-74
2022/06/23 11:02:13;;;;;;;6.35;2.85;;;;;;;;;;10220074;28;20071;-75
2022/06/23 11:07:36;;;;;;;4.80;2.72;;;;;;;;;;10212890;28;20379;-75
2022/06/23 11:12:55;;;;;;;5.70;2.60;;;;;;;;;;10219989;28;20169;-74
2022/06/23 11:18:07;;;;;;;5.68;2.60;;;;;;;;;;10219715;28;20551;-75
2022/06/23 11:23:28;;;;;;;4.95;2.53;;;;;;;;;;10214490;28;20083;-77
2022/06/23 11:28:31;;;;;;;4.60;2.30;;;;;;;;;;10216796;28;20047;-76
2022/06/23 11:33:32;;;;;;;4.50;2.00;;;;;;;;;;10210876;29;20467;-76
2022/06/23 11:38:42;;;;;;;3.13;2.13;;;;;;;;;;10224548;28;20047;-75
2022/06/23 11:43:54;;;;;;;3.97;2.60;;;;;;;;;;10217324;28;20471;-76
2022/06/23 11:48:57;;;;;;;3.80;1.83;;;;;;;;;;10228232;28;20040;-74
2022/06/23 11:54:06;;;;;;;5.30;1.63;;;;;;;;;;10235522;28;20051;-75
2022/06/23 11:59:07;;;;;;;4.53;2.35;;;;;;;;;;10231120;28;20762;-74
2022/06/23 12:04:10;;;;;;;5.63;1.80;;;;;;;;;;10221089;28;20122;-74
2022/06/23 12:09:23;;;;;;;4.90;2.05;;;;;;;;;;10225234;28;20064;-73
2022/06/23 12:14:24;;;;;;;5.13;1.77;;;;;;;;;;10234575;28;20836;-74
2022/06/23 12:19:36;;;;;;;4.95;1.77;;;;;;;;;;10228797;28;20047;-75
2022/06/23 12:25:00;;;;;;;3.33;1.55;;;;;;;;;;10225825;28;20082;-74
2022/06/23 12:30:27;;;;;;;4.32;1.50;;;;;;;;;;10221083;28;20134;-75
2022/06/23 12:35:27;;;;;;;4.93;1.75;;;;;;;;;;10216399;28;20047;-77
2022/06/23 12:40:32;;;;;;;4.37;2.10;;;;;;;;;;10221871;28;20044;-75
2022/06/23 12:45:49;;;;;;;2.97;1.92;;;;;;;;;;10219125;28;20074;-73
2022/06/23 12:51:01;;;;;;;4.05;2.10;;;;;;;;;;10239453;28;20048;-77
2022/06/23 12:56:12;;;;;;;2.90;1.70;;;;;;;;;;10232464;28;20043;-76
2022/06/23 13:01:14;;;;;;;2.42;1.80;;;;;;;;;;10233215;28;20114;-75
2022/06/23 13:06:24;;;;;;;5.32;2.17;;;;;;;;;;10236813;28;20078;-75
2022/06/23 13:11:30;;;;;;;3.55;2.20;;;;;;;;;;10241395;28;20124;-76
2022/06/23 13:16:39;;;;;;;4.00;2.35;;;;;;;;;;10231211;28;20099;-77
2022/06/23 13:21:40;;;;;;;2.95;1.90;;;;;;;;;;10225829;28;20051;-76
2022/06/23 13:26:58;;;;;;;3.65;1.77;;;;;;;;;;10212252;28;20071;-79
2022/06/23 13:32:11;;;;;;;3.85;1.90;;;;;;;;;;10224576;28;20047;-77
2022/06/23 13:37:17;;;;;;;4.35;2.40;;;;;;;;;;10218526;28;20048;-77
2022/06/23 13:42:22;;;;;;;2.45;2.00;;;;;;;;;;10222174;28;20059;-77
2022/06/23 13:47:34;;;;;;;3.13;2.08;;;;;;;;;;10218709;28;20476;-78
2022/06/23 13:52:40;;;;;;;3.00;2.10;;;;;;;;;;10227961;28;20167;-77
2022/06/23 13:57:43;;;;;;;4.38;2.10;;;;;;;;;;10258725;28;20129;-76
2022/06/23 14:02:48;;;;;;;4.70;2.17;;;;;;;;;;10228305;28;20422;-77
2022/06/23 14:07:54;;;;;;;3.38;2.30;;;;;;;;;;10233294;28;20078;-76
2022/06/23 14:13:07;;;;;;;5.28;3.03;;;;;;;;;;10225677;28;20574;-79
2022/06/23 14:18:14;;;;;;;3.72;2.63;;;;;;;;;;10224569;28;20565;-77
2022/06/23 14:23:25;;;;;;;3.95;2.47;;;;;;;;;;10209885;29;20055;-75
2022/06/23 14:28:30;;;;;;;4.50;2.75;;;;;;;;;;10225111;28;20061;-77
2022/06/23 14:33:34;;;;;;;3.75;2.38;;;;;;;;;;10216420;28;20052;-77
2022/06/23 14:38:48;;;;;;;5.28;2.90;;;;;;;;;;10221443;28;20050;-75
2022/06/23 14:44:07;;;;;;;5.65;2.72;;;;;;;;;;10230532;28;20924;-75
2022/06/23 14:49:08;;;;;;;4.63;2.40;;;;;;;;;;10225259;28;20114;-77
2022/06/23 14:54:14;;;;;;;6.57;4.47;;;;;;;;;;10225859;28;20040;-76
2022/06/23 14:59:35;;;;;;;5.00;2.38;;;;;;;;;;10230928;28;20054;-79
2022/06/23 15:04:49;;;;;;;3.95;2.50;;;;;;;;;;10219150;28;20059;-75
2022/06/23 15:09:49;;;;;;;2.28;2.00;;;;;;;;;;10229776;28;20129;-76
2022/06/23 15:14:50;;;;;;;;;;;;;;;;;;10223323;28;20423;-78
2022/06/23 15:19:54;;;;;;;2.83;2.10;;;;;;;;;;10207785;28;19919;-80
2022/06/23 15:24:54;;;;;;;3.03;2.30;;;;;;;;;;10217526;28;20062;-75
2022/06/23 15:29:55;;;;;;;;;;;;;;;;;;10217369;28;20050;-79
2022/06/23 15:34:58;;;;;;;3.05;2.28;;;;;;;;;;10218164;28;19922;-79
2022/06/23 15:40:05;;;;;;;3.22;2.50;;;;;;;;;;10208779;28;20063;-76
2022/06/23 15:45:12;;;;;;;3.35;2.40;;;;;;;;;;10217652;28;20074;-76
2022/06/23 15:50:13;;;;;;;3.75;2.90;;;;;;;;;;10227142;28;20054;-76
2022/06/23 15:55:13;;;;;;;;;;;;;;;;;;10222087;28;20510;-76
2022/06/23 16:00:29;;;;;;;3.72;2.50;;;;;;;;;;10238948;28;19915;-76
2022/06/23 16:05:30;;;;;;;4.70;2.47;;;;;;;;;;10236254;28;20105;-75
2022/06/23 16:10:30;;;;;;;;;;;;;;;;;;10238199;28;20059;-77
2022/06/23 16:15:34;;;;;;;3.60;1.98;;;;;;;;;;10244033;28;20037;-79
2022/06/23 16:20:37;;;;;;;3.97;2.05;;;;;;;;;;10231951;28;20078;-76
2022/06/23 16:25:44;;;;;;;3.85;2.47;;;;;;;;;;10235933;28;20082;-75
2022/06/23 16:30:46;;;;;;;4.53;2.55;;;;;;;;;;10241454;28;20093;-76
2022/06/23 16:35:54;;;;;;;5.30;2.60;;;;;;;;;;10228331;28;20050;-78
2022/06/23 16:41:03;;;;;;;3.83;3.42;;;;;;;;;;10231351;28;20050;-76
2022/06/23 16:46:06;;;;;;;3.28;2.22;;;;;;;;;;10227897;28;20348;-77
2022/06/23 16:51:13;;;;;;;2.47;2.28;;;;;;;;;;10234962;28;20051;-77
2022/06/23 16:56:23;;;;;;;2.97;2.58;;;;;;;;;;10226589;28;20055;-76
2022/06/23 17:01:30;;;;;;;3.00;2.67;;;;;;;;;;10233536;28;20067;-77
2022/06/23 17:06:41;;;;;;;3.75;2.38;;;;;;;;;;10227671;29;20040;-76
2022/06/23 17:12:00;;;;;;;3.63;2.53;;;;;;;;;;10212010;28;20078;-80
2022/06/23 17:17:03;;;;;;;3.92;2.63;;;;;;;;;;10263494;28;20058;-77
2022/06/23 17:22:06;;;;;;;3.25;2.47;;;;;;;;;;10263117;28;20051;-78
2022/06/23 17:27:11;;;;;;;4.53;2.88;;;;;;;;;;10247195;28;20047;-78
2022/06/23 17:32:16;;;;;;;4.53;2.28;;;;;;;;;;10257656;28;20049;-78
2022/06/23 17:37:29;;;;;;;3.17;2.45;;;;;;;;;;10239546;28;20043;-78
2022/06/23 17:48:07;;;;;;;4.97;2.20;;;;;;;;;;10244023;28;20107;-78
2022/06/23 17:53:16;;;;;;;3.05;2.40;;;;;;;;;;10240244;28;20209;-76
2022/06/23 17:58:18;;;;;;;2.47;1.80;;;;;;;;;;10245609;28;20056;-78
2022/06/23 18:03:19;;;;;;;;;;;;;;;;;;10254933;28;20060;-75
2022/06/23 18:08:20;;;;;;;3.00;2.08;;;;;;;;;;10246321;28;19918;-79
2022/06/23 18:13:26;;;;;;;2.60;2.08;;;;;;;;;;10230520;28;20064;-78
2022/06/23 18:18:41;;;;;;;4.05;2.45;;;;;;;;;;10230830;29;20048;-78
2022/06/23 18:23:50;;;;;;;4.03;2.40;;;;;;;;;;10227833;28;20090;-78
2022/06/23 18:28:57;;;;;;;2.83;2.50;;;;;;;;;;10245846;28;20043;-77
2022/06/23 18:34:01;;;;;;;4.15;2.95;;;;;;;;;;10234174;28;20507;-76
2022/06/23 18:39:10;;;;;;;3.17;2.40;;;;;;;;;;10237588;28;20044;-77
2022/06/23 18:44:10;;;;;;;3.50;2.50;;;;;;;;;;10214574;28;20057;-76
2022/06/23 18:49:11;;;;;;;3.72;2.55;;;;;;;;;;10235505;28;20059;-77
2022/06/23 18:54:15;;;;;;;3.40;3.10;;;;;;;;;;10227506;28;20122;-77
2022/06/23 18:59:15;;;;;;;4.50;3.28;;;;;;;;;;10227411;28;20138;-76
2022/06/23 19:04:25;;;;;;;5.03;3.97;;;;;;;;;;10223624;28;20106;-78
2022/06/23 19:09:31;;;;;;;4.20;3.20;;;;;;;;;;10236784;28;20063;-80
2022/06/23 19:14:32;;;;;;;4.53;3.60;;;;;;;;;;10230572;28;20079;-77
2022/06/23 19:19:39;;;;;;;5.03;3.75;;;;;;;;;;10243607;28;20071;-79
2022/06/23 19:24:39;;;;;;;6.25;4.72;;;;;;;;;;10268919;28;20126;-77
2022/06/23 19:29:58;;;;;;;5.53;4.60;;;;;;;;;;10238357;28;20424;-78
2022/06/23 19:35:00;;;;;;;6.05;5.30;;;;;;;;;;10221560;28;20055;-79
2022/06/23 19:40:10;;;;;;;6.40;4.65;;;;;;;;;;10221144;28;20474;-79
2022/06/23 19:45:20;;;;;;;5.85;5.10;;;;;;;;;;10209595;28;20063;-79
2022/06/23 19:50:26;;;;;;;5.40;4.57;;;;;;;;;;10266214;28;20044;-82
2022/06/23 19:55:46;;;;;;;5.63;4.25;;;;;;;;;;10262793;28;20056;-84
2022/06/23 20:01:24;;;;;;;4.57;3.60;;;;;;;;;;10266234;28;20027;-83
2022/06/23 20:06:41;;;;;;;3.72;3.38;;;;;;;;;;10156195;29;20048;-87
2022/06/23 20:11:52;;;;;;;3.63;2.70;;;;;;;;;;10168301;28;20040;-82
2022/06/23 20:17:14;;;;;;;3.72;3.00;;;;;;;;;;10255990;28;20051;-83
2022/06/23 20:22:42;;;;;;;4.00;2.80;;;;;;;;;;10249676;28;20063;-80
2022/06/23 20:27:42;;;;;;;5.47;3.10;;;;;;;;;;10234890;28;20586;-79
2022/06/23 20:33:16;;;;;;;5.53;3.40;;;;;;;;;;10262862;28;20063;-78
2022/06/23 20:38:30;;;;;;;4.15;3.50;;;;;;;;;;10252358;28;20505;-79
2022/06/23 20:43:33;;;;;;;4.18;3.67;;;;;;;;;;10264077;28;20121;-82
2022/06/23 20:49:00;;;;;;;3.38;2.95;;;;;;;;;;10267138;28;20058;-82
2022/06/23 20:54:03;;;;;;;4.03;3.50;;;;;;;;;;10263368;28;20068;-80
2022/06/23 20:59:26;;;;;;;3.47;3.17;;;;;;;;;;10255962;28;20110;-81
2022/06/23 21:04:52;;;;;;;4.35;3.67;;;;;;;;;;10276205;28;20059;-84
2022/06/23 21:10:06;;;;;;;4.95;4.45;;;;;;;;;;10276327;28;20043;-86
2022/06/23 21:15:15;;;;;;;7.95;6.97;;;;;;;;;;10247145;28;20062;-80
2022/06/23 21:20:36;;;;;;;7.03;5.82;;;;;;;;;;10282298;28;20051;-83
2022/06/23 21:25:51;;;;;;;5.50;5.00;;;;;;;;;;10268532;28;20055;-82
2022/06/23 21:31:06;;;;;;;5.20;4.70;;;;;;;;;;10267218;28;20072;-82
2022/06/23 21:36:18;;;;;;;6.50;4.85;;;;;;;;;;10259877;28;20087;-83
2022/06/23 21:41:30;;;;;;;5.70;5.03;;;;;;;;;;10266020;28;20107;-82
2022/06/23 21:46:37;;;;;;;7.18;4.75;;;;;;;;;;10261722;28;20063;-83
2022/06/23 21:51:58;;;;;;;6.50;4.88;;;;;;;;;;10269244;28;20050;-83
2022/06/23 21:57:01;;;;;;;6.93;5.15;;;;;;;;;;10233733;28;20055;-81
2022/06/23 22:02:11;;;;;;;7.28;5.90;;;;;;;;;;10277591;28;20043;-82
2022/06/23 22:07:19;;;;;;;8.35;6.55;;;;;;;;;;10244799;29;20116;-80
2022/06/23 22:12:20;;;;;;;7.68;5.72;;;;;;;;;;10251696;28;20122;-82
2022/06/23 22:17:20;;;;;;;7.10;5.33;;;;;;;;;;10249096;28;20043;-81
2022/06/23 22:22:32;;;;;;;6.05;4.97;;;;;;;;;;10239571;28;20139;-79
2022/06/23 22:27:51;;;;;;;7.32;4.90;;;;;;;;;;10239787;28;20133;-81
2022/06/23 22:32:54;;;;;;;6.00;5.38;;;;;;;;;;10257294;28;20782;-83
2022/06/23 22:37:58;;;;;;;7.45;6.05;;;;;;;;;;10241544;28;20098;-84
2022/06/23 22:43:03;;;;;;;6.80;5.47;;;;;;;;;;10246287;28;20055;-81
2022/06/23 22:48:29;;;;;;;6.95;5.70;;;;;;;;;;10223710;28;20039;-82
2022/06/23 22:53:55;;;;;;;5.43;4.78;;;;;;;;;;10215684;28;20102;-81
2022/06/23 22:59:07;;;;;;;5.78;5.18;;;;;;;;;;10254352;28;20622;-79
2022/06/23 23:04:30;;;;;;;6.37;5.00;;;;;;;;;;10254880;28;20114;-80
2022/06/23 23:09:31;;;;;;;5.47;4.97;;;;;;;;;;10258837;28;20301;-84
2022/06/23 23:14:38;;;;;;;6.13;5.00;;;;;;;;;;10268475;28;20119;-84
2022/06/23 23:19:40;;;;;;;6.47;5.57;;;;;;;;;;10257350;28;20487;-83
2022/06/23 23:24:41;;;;;;;5.97;5.25;;;;;;;;;;10276866;28;20443;-82
2022/06/23 23:29:53;;;;;;;7.13;5.57;;;;;;;;;;10274481;28;20131;-84
2022/06/23 23:34:59;;;;;;;8.82;5.68;;;;;;;;;;10265818;28;20475;-83
2022/06/23 23:40:38;;;;;;;6.60;5.38;;;;;;;;;;10223548;28;20075;-82
2022/06/23 23:45:40;;;;;;;7.78;5.05;;;;;;;;;;10148536;29;20195;-81
2022/06/23 23:50:45;;;;;;;6.38;5.10;;;;;;;;;;10221938;29;20054;-81
2022/06/23 23:55:48;;;;;;;9.75;5.40;;;;;;;;;;10251419;28;20139;-83
